Leaders Heights, Pennsylvania
Current Conditions -  °F | °C
As of 4:53 AM on Thursday 23 Oct 2014 (Local Time) from KTHV Reporting Station
Overcast Overcast  
Wind Chill: 52°   Ceiling: 2800
Heat Index: 52°   Visibility: 10mi
Dew Point: 43°   Wind: 14mph
Humidity: 71%   Direction: 330°NNW
Pressure: 29.87"   Gusts: NA
Location:  39.9503°N, 76.7105°W
Report Text: KTHV 230853Z AUTO 33012KT 10SM OVC028 11/06 A2987 RMK AO2 RAB06E07 SLP117 P0000 60000 T01110061 56006
Loading
Personal Weather Stations






























Interactive Weather Map
Tropical Storm Tracking
New forecast layout! Learn more

10-Day Weather Forecast

Advertisements
Track Severe Weather on mobile